createdAt,value
2019-02-05T00:00:36.535Z,3.76
2019-02-05T00:03:09.041Z,3.83
2019-02-05T00:05:39.529Z,3.71
2019-02-05T00:08:10.056Z,3.75
2019-02-05T00:10:40.554Z,3.71
2019-02-05T00:13:11.311Z,3.62
2019-02-05T00:15:41.794Z,3.66
2019-02-05T00:18:12.253Z,3.62
2019-02-05T00:20:42.986Z,3.58
2019-02-05T00:23:13.483Z,3.64
2019-02-05T00:25:44.255Z,3.65
2019-02-05T00:28:15.154Z,3.66
2019-02-05T00:30:45.906Z,3.63
2019-02-05T00:33:16.904Z,3.68
2019-02-05T00:35:47.369Z,3.69
2019-02-05T00:38:17.964Z,3.70
2019-02-05T00:40:48.992Z,3.72
2019-02-05T00:43:20.151Z,3.80
2019-02-05T00:45:50.645Z,3.81
2019-02-05T00:48:21.120Z,3.81
2019-02-05T00:50:51.709Z,3.83
2019-02-05T00:53:22.161Z,3.87
2019-02-05T00:55:52.606Z,3.81
2019-02-05T00:58:23.107Z,3.82
2019-02-05T01:00:53.595Z,3.82
2019-02-05T01:03:24.577Z,3.77
2019-02-05T01:05:55.349Z,3.68
2019-02-05T01:08:26.372Z,3.65
2019-02-05T01:10:56.880Z,3.61
2019-02-05T01:13:27.332Z,3.64
2019-02-05T01:15:58.333Z,3.57
2019-02-05T01:18:29.029Z,3.51
2019-02-05T01:20:59.771Z,3.53
2019-02-05T01:23:30.286Z,3.49
2019-02-05T01:26:01.031Z,3.57
2019-02-05T01:28:31.486Z,3.50
2019-02-05T01:31:02.402Z,3.53
2019-02-05T01:33:33.153Z,3.44
2019-02-05T01:36:03.639Z,3.44
2019-02-05T01:38:34.167Z,3.48
2019-02-05T01:41:04.656Z,3.46
2019-02-05T01:43:35.106Z,3.47
2019-02-05T01:46:06.011Z,3.45
2019-02-05T01:48:36.762Z,3.45
2019-02-05T01:51:07.235Z,3.46
2019-02-05T01:53:38.045Z,3.46
2019-02-05T01:56:08.606Z,3.43
2019-02-05T01:58:39.067Z,3.44
2019-02-05T02:01:10.074Z,3.43
2019-02-05T02:03:40.571Z,3.46
2019-02-05T02:06:11.137Z,3.48
2019-02-05T02:08:41.602Z,3.41
2019-02-05T02:11:12.208Z,3.46
2019-02-05T02:13:42.744Z,3.41
2019-02-05T02:16:13.308Z,3.45
2019-02-05T02:18:44.097Z,3.42
2019-02-05T02:21:14.554Z,3.41
2019-02-05T02:23:45.054Z,3.45
2019-02-05T02:26:16.053Z,3.37
2019-02-05T02:28:46.550Z,3.41
2019-02-05T02:31:17.395Z,3.42
2019-02-05T02:33:47.933Z,3.47
2019-02-05T02:36:19.846Z,3.39
2019-02-05T02:38:50.354Z,3.36
2019-02-05T02:41:21.398Z,3.39
2019-02-05T02:43:52.212Z,3.36
2019-02-05T02:46:22.984Z,3.33
2019-02-05T02:48:53.426Z,3.31
2019-02-05T02:51:23.888Z,3.29
2019-02-05T02:53:54.927Z,3.27
2019-02-05T02:56:25.435Z,3.26
2019-02-05T02:58:55.880Z,3.22
2019-02-05T03:01:26.380Z,3.27
2019-02-05T03:03:56.847Z,3.24
2019-02-05T03:06:27.292Z,3.30
2019-02-05T03:08:58.041Z,3.32
2019-02-05T03:11:28.772Z,3.25
2019-02-05T03:13:59.229Z,3.34
2019-02-05T03:16:29.949Z,3.28
2019-02-05T03:19:00.644Z,3.27
2019-02-05T03:21:31.351Z,3.34
2019-02-05T03:24:02.281Z,3.25
2019-02-05T03:26:32.746Z,3.24
2019-02-05T03:29:03.486Z,3.29
2019-02-05T03:31:33.979Z,3.32
2019-02-05T03:34:04.787Z,3.34
2019-02-05T03:36:35.330Z,3.30
2019-02-05T03:39:07.742Z,3.31
2019-02-05T03:41:38.551Z,3.30
2019-02-05T03:44:09.258Z,3.38
2019-02-05T03:46:39.997Z,3.38
2019-02-05T03:49:10.771Z,3.36
2019-02-05T03:52:11.687Z,3.35
2019-02-05T03:55:31.439Z,3.36
2019-02-05T03:58:43.860Z,3.37
2019-02-05T04:02:15.864Z,3.31
2019-02-05T04:06:04.834Z,3.34
2019-02-05T04:09:20.559Z,3.34
2019-02-05T04:12:54.245Z,3.46
2019-02-05T04:16:40.683Z,3.36
2019-02-05T04:19:44.812Z,3.31
2019-02-05T04:22:55.028Z,3.32
2019-02-05T04:26:04.645Z,3.37
2019-02-05T04:29:50.717Z,3.37
2019-02-05T04:33:14.723Z,3.37
2019-02-05T04:36:12.775Z,3.32
2019-02-05T04:39:45.022Z,3.33
2019-02-05T04:43:33.331Z,3.31
2019-02-05T04:46:38.488Z,3.31
2019-02-05T04:50:06.903Z,3.35
2019-02-05T04:53:23.117Z,3.32
2019-02-05T04:56:27.261Z,3.38
2019-02-05T04:59:56.495Z,3.39
2019-02-05T05:03:33.751Z,3.41
2019-02-05T05:06:59.553Z,3.40
2019-02-05T05:09:58.581Z,3.42
2019-02-05T05:12:30.620Z,3.48
2019-02-05T05:15:01.822Z,3.46
2019-02-05T05:17:32.558Z,3.52
2019-02-05T05:20:03.074Z,3.46
2019-02-05T05:22:33.622Z,3.44
2019-02-05T05:25:04.980Z,3.46
2019-02-05T05:27:35.565Z,3.46
2019-02-05T05:30:11.792Z,3.51
2019-02-05T05:32:42.583Z,3.50
2019-02-05T05:35:13.704Z,3.44
2019-02-05T05:37:44.569Z,3.46
2019-02-05T05:40:15.454Z,3.49
2019-02-05T05:42:45.948Z,3.49
2019-02-05T05:45:16.841Z,3.50
2019-02-05T05:47:47.615Z,3.48
2019-02-05T05:50:21.227Z,3.52
2019-02-05T05:52:50.453Z,3.51
2019-02-05T05:55:21.228Z,3.51
2019-02-05T05:57:51.713Z,3.53
2019-02-05T06:00:22.550Z,3.49
2019-02-05T06:02:53.384Z,3.49
2019-02-05T06:05:24.346Z,3.58
2019-02-05T06:07:55.363Z,3.59
2019-02-05T06:10:26.192Z,3.57
2019-02-05T06:12:56.972Z,3.60
2019-02-05T06:15:27.503Z,3.57
2019-02-05T06:17:58.278Z,3.61
2019-02-05T06:20:28.858Z,3.57
2019-02-05T06:22:59.335Z,3.58
2019-02-05T06:25:29.892Z,3.55
2019-02-05T06:28:00.404Z,3.56
2019-02-05T06:30:31.416Z,3.57
2019-02-05T06:33:02.248Z,3.56
2019-02-05T06:35:33.134Z,3.56
2019-02-05T06:38:03.636Z,3.60
2019-02-05T06:40:34.675Z,3.59
2019-02-05T06:43:05.166Z,3.59
2019-02-05T06:45:35.863Z,3.59
2019-02-05T06:48:06.369Z,3.63
2019-02-05T06:50:37.194Z,3.67
2019-02-05T06:53:08.119Z,3.62
2019-02-05T06:55:38.951Z,3.61
2019-02-05T06:58:09.456Z,3.62
2019-02-05T07:00:40.240Z,3.63
2019-02-05T07:03:10.921Z,3.66
2019-02-05T07:05:41.503Z,3.65
2019-02-05T07:08:12.030Z,3.67
2019-02-05T07:10:42.572Z,3.71
2019-02-05T07:13:13.152Z,3.72
2019-02-05T07:15:43.724Z,3.70
2019-02-05T07:18:14.584Z,3.68
2019-02-05T07:20:45.292Z,3.76
2019-02-05T07:23:15.791Z,3.73
2019-02-05T07:25:46.410Z,3.76
2019-02-05T07:28:16.901Z,3.80
2019-02-05T07:30:47.649Z,3.82
2019-02-05T07:33:18.482Z,3.79
2019-02-05T07:35:49.307Z,3.78
2019-02-05T07:38:20.021Z,3.86
2019-02-05T07:40:50.630Z,3.84
2019-02-05T07:43:21.103Z,3.82
2019-02-05T07:45:51.575Z,3.86
2019-02-05T07:48:22.323Z,3.85
2019-02-05T07:50:53.178Z,3.86
2019-02-05T07:53:23.979Z,3.90
2019-02-05T07:55:54.456Z,3.89
2019-02-05T07:58:25.042Z,3.94
2019-02-05T08:00:56.018Z,3.98
2019-02-05T08:03:26.508Z,3.96
2019-02-05T08:05:57.484Z,3.97
2019-02-05T08:08:28.089Z,3.97
2019-02-05T08:10:58.621Z,3.95
2019-02-05T08:13:29.132Z,4.00
2019-02-05T08:15:59.927Z,4.05
2019-02-05T08:18:30.869Z,4.05
2019-02-05T08:21:01.380Z,4.06
2019-02-05T08:23:31.974Z,4.06
2019-02-05T08:26:02.845Z,4.08
2019-02-05T08:28:40.682Z,4.14
2019-02-05T08:31:06.061Z,4.17
2019-02-05T08:33:36.894Z,4.16
2019-02-05T08:36:07.760Z,4.15
2019-02-05T08:38:38.344Z,4.21
2019-02-05T08:41:08.960Z,4.20
2019-02-05T08:43:39.749Z,4.18
2019-02-05T08:46:10.478Z,4.24
2019-02-05T08:48:40.986Z,4.26
2019-02-05T08:51:11.722Z,4.23
2019-02-05T08:53:42.204Z,4.18
2019-02-05T08:56:13.227Z,4.23
2019-02-05T08:58:43.842Z,4.29
2019-02-05T09:01:14.692Z,4.32
2019-02-05T09:03:45.356Z,4.35
2019-02-05T09:06:16.368Z,4.31
2019-02-05T09:08:46.848Z,4.32
2019-02-05T09:11:17.371Z,4.33
2019-02-05T09:13:48.092Z,4.33
2019-02-05T09:16:18.591Z,4.34
2019-02-05T09:18:49.365Z,4.41
2019-02-05T09:21:20.048Z,4.36
2019-02-05T09:23:50.790Z,4.42
2019-02-05T09:26:21.375Z,4.46
2019-02-05T09:28:52.574Z,4.47
2019-02-05T09:31:23.215Z,4.53
2019-02-05T09:33:53.684Z,4.56
2019-02-05T09:36:24.323Z,4.59
2019-02-05T09:38:54.833Z,4.55
2019-02-05T09:41:25.399Z,4.58
2019-02-05T09:43:55.882Z,4.55
2019-02-05T09:46:26.363Z,4.52
2019-02-05T09:48:56.838Z,4.53
2019-02-05T09:51:27.472Z,4.54
2019-02-05T09:53:57.947Z,4.57
2019-02-05T09:56:28.402Z,4.63
2019-02-05T09:58:59.390Z,4.70
2019-02-05T10:01:29.877Z,4.71
2019-02-05T10:04:00.331Z,4.65
2019-02-05T10:06:31.115Z,4.75
2019-02-05T10:09:01.741Z,4.72
2019-02-05T10:11:32.221Z,4.71
2019-02-05T10:14:02.957Z,4.74
2019-02-05T10:16:33.455Z,4.75
2019-02-05T10:19:04.214Z,4.80
2019-02-05T10:21:35.083Z,4.86
2019-02-05T10:24:05.809Z,4.86
2019-02-05T10:26:36.281Z,4.93
2019-02-05T10:29:07.315Z,4.92
2019-02-05T10:31:38.031Z,4.94
2019-02-05T10:34:08.561Z,4.94
2019-02-05T10:36:39.040Z,4.99
2019-02-05T10:39:12.006Z,5.01
2019-02-05T10:41:42.733Z,5.04
2019-02-05T10:44:13.204Z,5.07
2019-02-05T10:46:43.974Z,5.11
2019-02-05T10:49:14.738Z,5.03
2019-02-05T10:51:45.212Z,5.10
2019-02-05T10:54:15.693Z,5.08
2019-02-05T10:56:46.162Z,5.14
2019-02-05T10:59:16.671Z,5.13
2019-02-05T11:01:47.185Z,5.16
2019-02-05T11:04:18.172Z,5.13
2019-02-05T11:06:49.209Z,5.14
2019-02-05T11:09:19.963Z,5.14
2019-02-05T11:11:50.440Z,5.13
2019-02-05T11:14:21.179Z,5.15
2019-02-05T11:16:52.000Z,5.19
2019-02-05T11:19:22.751Z,5.16
2019-02-05T11:21:53.215Z,5.22
2019-02-05T11:24:23.728Z,5.22
2019-02-05T11:26:54.183Z,5.15
2019-02-05T11:29:24.886Z,5.18
2019-02-05T11:31:55.384Z,5.18
2019-02-05T11:34:26.323Z,5.17
2019-02-05T11:36:57.060Z,5.18
2019-02-05T11:39:27.547Z,5.14
2019-02-05T11:41:58.043Z,5.20
2019-02-05T11:44:28.777Z,5.26
2019-02-05T11:46:59.287Z,5.23
2019-02-05T11:49:30.194Z,5.24
2019-02-05T11:52:00.921Z,5.24
2019-02-05T11:54:31.447Z,5.34
2019-02-05T11:57:02.156Z,5.29
2019-02-05T11:59:32.623Z,5.40
2019-02-05T12:02:03.460Z,5.44
2019-02-05T12:04:33.852Z,5.42
2019-02-05T12:07:07.026Z,5.48
2019-02-05T12:09:37.585Z,5.50
2019-02-05T12:12:08.041Z,5.54
2019-02-05T12:14:38.544Z,5.50
2019-02-05T12:17:09.345Z,5.57
2019-02-05T12:19:39.880Z,5.61
2019-02-05T12:22:10.343Z,5.70
2019-02-05T12:24:40.854Z,5.74
2019-02-05T12:27:11.308Z,5.69
2019-02-05T12:29:41.769Z,5.65
2019-02-05T12:32:12.493Z,5.72
2019-02-05T12:34:43.175Z,5.74
2019-02-05T12:37:14.081Z,5.60
2019-02-05T12:39:44.748Z,5.64
2019-02-05T12:42:15.285Z,5.67
2019-02-05T12:44:46.241Z,5.68
2019-02-05T12:47:17.217Z,5.63
2019-02-05T12:49:48.096Z,5.64
2019-02-05T12:52:18.874Z,5.66
2019-02-05T12:54:49.809Z,5.62
2019-02-05T12:57:20.463Z,5.64
2019-02-05T12:59:52.535Z,5.70
2019-02-05T13:02:23.787Z,5.77
2019-02-05T13:04:54.694Z,5.81
2019-02-05T13:07:25.300Z,5.91
2019-02-05T13:09:56.327Z,5.90
2019-02-05T13:12:27.024Z,5.99
2019-02-05T13:14:58.021Z,6.04
2019-02-05T13:17:28.666Z,5.99
2019-02-05T13:19:59.410Z,6.03
2019-02-05T13:22:29.898Z,6.06
2019-02-05T13:25:00.505Z,6.08
2019-02-05T13:27:31.320Z,6.11
2019-02-05T13:30:02.058Z,6.08
2019-02-05T13:32:32.832Z,6.07
2019-02-05T13:35:03.560Z,6.12
2019-02-05T13:37:34.102Z,5.97
2019-02-05T13:40:06.344Z,5.94
2019-02-05T13:42:37.133Z,5.98
2019-02-05T13:45:09.385Z,6.06
2019-02-05T13:47:40.476Z,6.05
2019-02-05T13:50:17.713Z,6.05
2019-02-05T13:52:48.571Z,6.11
2019-02-05T13:55:22.994Z,6.08
2019-02-05T13:57:53.491Z,6.12
2019-02-05T14:00:31.191Z,6.20
2019-02-05T14:03:01.730Z,6.24
2019-02-05T14:05:32.206Z,6.25
2019-02-05T14:08:03.163Z,6.28
2019-02-05T14:10:34.693Z,6.28
2019-02-05T14:13:05.637Z,6.34
2019-02-05T14:15:38.446Z,6.28
2019-02-05T14:18:10.250Z,6.27
2019-02-05T14:20:40.963Z,6.30
2019-02-05T14:23:11.616Z,6.33
2019-02-05T14:25:42.065Z,6.37
2019-02-05T14:28:12.761Z,6.36
2019-02-05T14:30:55.247Z,6.42
2019-02-05T14:33:28.070Z,6.38
2019-02-05T14:35:58.701Z,6.33
2019-02-05T14:38:29.141Z,6.28
2019-02-05T14:40:59.599Z,6.40
2019-02-05T14:43:30.433Z,6.42
2019-02-05T14:46:01.168Z,6.41
2019-02-05T14:48:32.055Z,6.49
2019-02-05T14:51:02.532Z,6.28
2019-02-05T14:53:32.982Z,6.27
2019-02-05T14:56:03.739Z,6.35
2019-02-05T14:58:34.486Z,6.30
2019-02-05T15:01:05.269Z,6.38
2019-02-05T15:03:36.022Z,6.40
2019-02-05T15:06:06.904Z,6.32
2019-02-05T15:08:37.367Z,6.39
2019-02-05T15:11:08.456Z,6.36
2019-02-05T15:13:38.996Z,6.39
2019-02-05T15:16:09.488Z,6.43
2019-02-05T15:18:39.960Z,6.41
2019-02-05T15:21:10.438Z,6.36
2019-02-05T15:23:41.155Z,6.39
2019-02-05T15:26:11.873Z,6.42
2019-02-05T15:28:42.390Z,6.40
2019-02-05T15:31:13.125Z,6.34
2019-02-05T15:33:54.136Z,6.41
2019-02-05T15:36:32.121Z,6.40
2019-02-05T15:39:04.566Z,6.34
2019-02-05T15:41:35.002Z,6.26
2019-02-05T15:44:05.525Z,6.22
2019-02-05T15:46:36.086Z,6.21
2019-02-05T15:49:07.079Z,6.12
2019-02-05T15:51:37.547Z,6.15
2019-02-05T15:54:08.108Z,6.21
2019-02-05T15:56:38.572Z,6.22
2019-02-05T15:59:09.322Z,6.19
2019-02-05T16:01:39.873Z,6.23
2019-02-05T16:04:10.665Z,6.29
2019-02-05T16:06:41.115Z,6.26
2019-02-05T16:09:12.624Z,6.21
2019-02-05T16:11:43.355Z,6.22
2019-02-05T16:14:13.952Z,6.21
2019-02-05T16:16:44.470Z,6.17
2019-02-05T16:19:16.548Z,6.19
2019-02-05T16:21:48.298Z,6.19
2019-02-05T16:24:18.941Z,6.13
2019-02-05T16:26:49.774Z,6.15
2019-02-05T16:29:20.296Z,6.13
2019-02-05T16:31:50.754Z,6.17
2019-02-05T16:34:21.385Z,6.17
2019-02-05T16:36:51.908Z,6.17
2019-02-05T16:39:22.471Z,6.14
2019-02-05T16:41:52.937Z,6.15
2019-02-05T16:44:23.454Z,6.17
2019-02-05T16:46:54.305Z,6.20
2019-02-05T16:49:24.758Z,6.24
2019-02-05T16:51:55.253Z,6.18
2019-02-05T16:54:26.132Z,6.20
2019-02-05T16:56:56.972Z,6.17
2019-02-05T16:59:27.454Z,6.21
2019-02-05T17:01:58.175Z,6.23
2019-02-05T17:04:28.634Z,6.23
2019-02-05T17:06:59.358Z,6.15
2019-02-05T17:09:29.826Z,6.18
2019-02-05T17:12:00.273Z,6.16
2019-02-05T17:14:31.013Z,6.18
2019-02-05T17:17:05.362Z,6.23
2019-02-05T17:19:35.944Z,6.17
2019-02-05T17:22:06.750Z,6.22
2019-02-05T17:24:37.208Z,6.23
2019-02-05T17:27:07.822Z,6.18
2019-02-05T17:29:38.386Z,6.23
2019-02-05T17:32:08.848Z,6.21
2019-02-05T17:34:39.626Z,6.18
2019-02-05T17:37:10.196Z,6.16
2019-02-05T17:39:41.558Z,6.25
2019-02-05T17:42:12.082Z,6.18
2019-02-05T17:44:42.574Z,6.22
2019-02-05T17:47:13.662Z,6.23
2019-02-05T17:49:46.266Z,6.21
2019-02-05T17:52:17.028Z,6.22
2019-02-05T17:54:49.377Z,6.19
2019-02-05T17:57:20.243Z,6.16
2019-02-05T17:59:50.856Z,6.16
2019-02-05T18:02:21.654Z,6.12
2019-02-05T18:04:52.070Z,6.09
2019-02-05T18:07:22.794Z,6.11
2019-02-05T18:09:53.299Z,6.07
2019-02-05T18:12:24.020Z,6.12
2019-02-05T18:14:54.561Z,6.08
2019-02-05T18:17:25.335Z,6.08
2019-02-05T18:19:56.039Z,6.09
2019-02-05T18:22:26.552Z,6.10
2019-02-05T18:24:57.289Z,6.07
2019-02-05T18:27:28.274Z,6.09
2019-02-05T18:29:58.840Z,6.05
2019-02-05T18:32:29.359Z,6.04
2019-02-05T18:35:00.046Z,6.06
2019-02-05T18:37:31.055Z,6.01
2019-02-05T18:40:01.621Z,6.00
2019-02-05T18:42:32.197Z,6.03
2019-02-05T18:45:03.314Z,5.92
2019-02-05T18:47:34.532Z,5.94
2019-02-05T18:50:06.654Z,5.86
2019-02-05T18:52:37.199Z,5.89
2019-02-05T18:55:10.642Z,5.72
2019-02-05T18:57:41.503Z,5.68
2019-02-05T19:00:26.199Z,5.69
2019-02-05T19:02:56.675Z,5.57
2019-02-05T19:05:27.503Z,5.56
2019-02-05T19:07:58.106Z,5.57
2019-02-05T19:10:29.226Z,5.51
2019-02-05T19:13:00.111Z,5.43
2019-02-05T19:15:35.185Z,5.46
2019-02-05T19:18:07.149Z,5.38
2019-02-05T19:20:37.626Z,5.38
2019-02-05T19:23:10.024Z,5.34
2019-02-05T19:25:57.730Z,5.32
2019-02-05T19:28:30.598Z,5.31
2019-02-05T19:31:08.899Z,5.29
2019-02-05T19:33:39.499Z,5.29
2019-02-05T19:36:10.007Z,5.28
2019-02-05T19:38:40.598Z,5.26
2019-02-05T19:41:11.184Z,5.23
2019-02-05T19:43:41.722Z,5.15
2019-02-05T19:46:34.139Z,5.19
2019-02-05T19:49:21.535Z,5.21
2019-02-05T19:51:44.808Z,5.13
2019-02-05T19:54:15.437Z,5.16
2019-02-05T19:56:46.204Z,5.03
2019-02-05T19:59:18.482Z,5.06
2019-02-05T20:01:48.992Z,5.01
2019-02-05T20:04:19.473Z,5.08
2019-02-05T20:06:50.232Z,4.95
2019-02-05T20:09:20.710Z,4.92
2019-02-05T20:11:51.277Z,4.89
2019-02-05T20:14:21.818Z,4.88
2019-02-05T20:16:52.275Z,4.81
2019-02-05T20:19:24.850Z,4.78
2019-02-05T20:21:55.206Z,4.75
2019-02-05T20:24:25.692Z,4.70
2019-02-05T20:26:56.162Z,4.67
2019-02-05T20:29:27.015Z,4.61
2019-02-05T20:31:57.528Z,4.55
2019-02-05T20:34:28.516Z,4.59
2019-02-05T20:36:59.368Z,4.59
2019-02-05T20:39:30.387Z,4.54
2019-02-05T20:42:01.990Z,4.50
2019-02-05T20:44:32.442Z,4.47
2019-02-05T20:47:02.928Z,4.48
2019-02-05T20:49:34.370Z,4.47
2019-02-05T20:52:04.984Z,4.44
2019-02-05T20:54:35.564Z,4.48
2019-02-05T20:57:06.127Z,4.53
2019-02-05T20:59:36.594Z,4.43
2019-02-05T21:02:07.082Z,4.46
2019-02-05T21:04:48.095Z,4.41
2019-02-05T21:07:09.827Z,4.42
2019-02-05T21:09:42.198Z,4.47
2019-02-05T21:12:12.739Z,4.42
2019-02-05T21:14:43.253Z,4.43
2019-02-05T21:17:14.094Z,4.40
2019-02-05T21:19:44.954Z,4.46
2019-02-05T21:22:15.533Z,4.40
2019-02-05T21:24:46.634Z,4.37
2019-02-05T21:27:17.538Z,4.42
2019-02-05T21:29:48.020Z,4.39
2019-02-05T21:32:19.312Z,4.38
2019-02-05T21:34:49.837Z,4.35
2019-02-05T21:37:20.294Z,4.41
2019-02-05T21:40:01.753Z,4.43
2019-02-05T21:42:23.741Z,4.40
2019-02-05T21:44:54.759Z,4.35
2019-02-05T21:47:25.346Z,4.41
2019-02-05T21:49:56.105Z,4.43
2019-02-05T21:52:26.599Z,4.40
2019-02-05T21:54:57.273Z,4.41
2019-02-05T21:57:28.126Z,4.39
2019-02-05T21:59:58.782Z,4.45
2019-02-05T22:02:29.301Z,4.43
2019-02-05T22:05:00.079Z,4.43
2019-02-05T22:07:30.593Z,4.44
2019-02-05T22:10:01.144Z,4.46
2019-02-05T22:12:32.633Z,4.43
2019-02-05T22:15:03.550Z,4.44
2019-02-05T22:17:35.252Z,4.42
2019-02-05T22:20:08.527Z,4.39
2019-02-05T22:22:39.028Z,4.37
2019-02-05T22:25:15.115Z,4.35
2019-02-05T22:27:47.439Z,4.29
2019-02-05T22:30:28.296Z,4.22
2019-02-05T22:32:58.938Z,4.19
2019-02-05T22:35:30.307Z,4.16
2019-02-05T22:38:01.259Z,4.14
2019-02-05T22:40:32.262Z,4.11
2019-02-05T22:43:03.481Z,4.06
2019-02-05T22:45:34.375Z,4.00
2019-02-05T22:48:07.208Z,3.95
2019-02-05T22:50:37.823Z,3.96
2019-02-05T22:53:08.490Z,3.94
2019-02-05T22:55:39.551Z,3.97
2019-02-05T22:58:10.111Z,3.96
2019-02-05T23:01:09.731Z,3.95
2019-02-05T23:06:28.292Z,3.98
2019-02-05T23:09:09.938Z,3.99
2019-02-05T23:12:46.414Z,4.05
2019-02-05T23:15:21.344Z,4.09
2019-02-05T23:17:51.851Z,4.13
2019-02-05T23:20:23.868Z,4.16
2019-02-05T23:22:56.969Z,4.11
2019-02-05T23:25:26.551Z,4.23
2019-02-05T23:27:57.274Z,4.20
2019-02-05T23:30:29.740Z,4.22
2019-02-05T23:33:00.854Z,4.20
2019-02-05T23:35:32.678Z,4.18
2019-02-05T23:38:03.487Z,4.21
2019-02-05T23:40:34.258Z,4.28
2019-02-05T23:43:05.203Z,4.25
2019-02-05T23:45:35.733Z,4.25
2019-02-05T23:48:07.260Z,4.26
2019-02-05T23:50:37.838Z,4.32
2019-02-05T23:53:08.540Z,4.24
2019-02-05T23:55:39.358Z,4.24
2019-02-05T23:58:09.883Z,4.23
